sensor_id;sensor_type;location;lat;lon;timestamp;temperature;humidity
9901;DHT22;4989;48.772;9.154;2023-07-31T00:10:10;19.20;73.80
9901;DHT22;4989;48.772;9.154;2023-07-31T00:15:13;18.70;77.80
9901;DHT22;4989;48.772;9.154;2023-07-31T00:20:16;18.10;80.00
9901;DHT22;4989;48.772;9.154;2023-07-31T00:25:21;17.80;81.80
9901;DHT22;4989;48.772;9.154;2023-07-31T00:30:23;17.80;82.70
9901;DHT22;4989;48.772;9.154;2023-07-31T00:35:31;17.60;84.50
9901;DHT22;4989;48.772;9.154;2023-07-31T00:40:37;17.50;85.70
9901;DHT22;4989;48.772;9.154;2023-07-31T00:45:39;17.40;86.60
9901;DHT22;4989;48.772;9.154;2023-07-31T00:50:42;17.40;88.00
9901;DHT22;4989;48.772;9.154;2023-07-31T00:55:45;17.30;89.00
9901;DHT22;4989;48.772;9.154;2023-07-31T01:00:48;17.20;90.30
9901;DHT22;4989;48.772;9.154;2023-07-31T01:11:22;17.40;90.60
9901;DHT22;4989;48.772;9.154;2023-07-31T01:16:29;17.50;90.80
9901;DHT22;4989;48.772;9.154;2023-07-31T01:21:41;17.70;90.50
9901;DHT22;4989;48.772;9.154;2023-07-31T01:26:58;17.50;91.00
9901;DHT22;4989;48.772;9.154;2023-07-31T01:32:09;17.50;91.30
9901;DHT22;4989;48.772;9.154;2023-07-31T01:37:14;17.50;91.80
9901;DHT22;4989;48.772;9.154;2023-07-31T01:42:17;17.60;91.50
9901;DHT22;4989;48.772;9.154;2023-07-31T01:47:20;17.30;92.10
9901;DHT22;4989;48.772;9.154;2023-07-31T01:52:26;17.30;92.30
9901;DHT22;4989;48.772;9.154;2023-07-31T01:57:30;17.20;92.50
9901;DHT22;4989;48.772;9.154;2023-07-31T02:02:33;17.20;93.20
9901;DHT22;4989;48.772;9.154;2023-07-31T02:07:36;17.20;93.50
9901;DHT22;4989;48.772;9.154;2023-07-31T02:12:39;17.00;93.70
9901;DHT22;4989;48.772;9.154;2023-07-31T02:17:41;17.00;94.20
9901;DHT22;4989;48.772;9.154;2023-07-31T02:22:43;16.90;94.50
9901;DHT22;4989;48.772;9.154;2023-07-31T02:27:45;16.90;95.00
9901;DHT22;4989;48.772;9.154;2023-07-31T02:32:50;16.90;95.10
9901;DHT22;4989;48.772;9.154;2023-07-31T02:37:52;16.90;95.50
9901;DHT22;4989;48.772;9.154;2023-07-31T02:42:54;16.70;95.80
9901;DHT22;4989;48.772;9.154;2023-07-31T02:47:56;16.80;96.00
9901;DHT22;4989;48.772;9.154;2023-07-31T02:52:58;16.70;96.20
9901;DHT22;4989;48.772;9.154;2023-07-31T02:58:01;16.80;96.10
9901;DHT22;4989;48.772;9.154;2023-07-31T03:03:03;16.70;96.40
9901;DHT22;4989;48.772;9.154;2023-07-31T03:08:05;16.60;96.90
9901;DHT22;4989;48.772;9.154;2023-07-31T03:13:08;16.60;97.10
9901;DHT22;4989;48.772;9.154;2023-07-31T03:18:10;16.40;97.60
9901;DHT22;4989;48.772;9.154;2023-07-31T03:23:12;16.40;97.80
9901;DHT22;4989;48.772;9.154;2023-07-31T03:28:14;16.30;97.40
9901;DHT22;4989;48.772;9.154;2023-07-31T03:33:17;16.50;97.10
9901;DHT22;4989;48.772;9.154;2023-07-31T03:38:20;16.50;97.20
9901;DHT22;4989;48.772;9.154;2023-07-31T03:43:22;16.50;97.20
9901;DHT22;4989;48.772;9.154;2023-07-31T03:48:24;16.50;96.90
9901;DHT22;4989;48.772;9.154;2023-07-31T03:53:27;16.60;96.30
9901;DHT22;4989;48.772;9.154;2023-07-31T03:58:29;16.70;95.90
9901;DHT22;4989;48.772;9.154;2023-07-31T04:03:31;16.70;95.40
9901;DHT22;4989;48.772;9.154;2023-07-31T04:08:33;16.90;95.00
9901;DHT22;4989;48.772;9.154;2023-07-31T04:13:36;16.90;94.40
9901;DHT22;4989;48.772;9.154;2023-07-31T04:18:38;17.10;94.30
9901;DHT22;4989;48.772;9.154;2023-07-31T04:23:40;17.10;94.10
9901;DHT22;4989;48.772;9.154;2023-07-31T04:28:42;17.20;94.00
9901;DHT22;4989;48.772;9.154;2023-07-31T04:33:44;17.10;93.80
9901;DHT22;4989;48.772;9.154;2023-07-31T04:38:47;17.30;93.90
9901;DHT22;4989;48.772;9.154;2023-07-31T04:43:49;17.30;93.90
9901;DHT22;4989;48.772;9.154;2023-07-31T04:48:51;17.20;94.00
9901;DHT22;4989;48.772;9.154;2023-07-31T04:53:54;17.30;94.20
9901;DHT22;4989;48.772;9.154;2023-07-31T04:58:56;17.40;94.10
9901;DHT22;4989;48.772;9.154;2023-07-31T05:03:58;17.50;94.00
9901;DHT22;4989;48.772;9.154;2023-07-31T05:09:00;17.30;94.40
9901;DHT22;4989;48.772;9.154;2023-07-31T05:14:02;17.30;94.40
9901;DHT22;4989;48.772;9.154;2023-07-31T05:19:05;17.30;94.30
9901;DHT22;4989;48.772;9.154;2023-07-31T05:24:07;17.30;94.30
9901;DHT22;4989;48.772;9.154;2023-07-31T05:29:09;17.30;94.40
9901;DHT22;4989;48.772;9.154;2023-07-31T05:34:12;17.30;94.80
9901;DHT22;4989;48.772;9.154;2023-07-31T05:39:14;17.30;94.70
9901;DHT22;4989;48.772;9.154;2023-07-31T05:44:16;17.60;94.40
9901;DHT22;4989;48.772;9.154;2023-07-31T05:49:18;17.60;94.20
9901;DHT22;4989;48.772;9.154;2023-07-31T05:54:21;17.70;93.90
9901;DHT22;4989;48.772;9.154;2023-07-31T05:59:23;18.10;93.40
9901;DHT22;4989;48.772;9.154;2023-07-31T06:04:25;18.10;93.20
9901;DHT22;4989;48.772;9.154;2023-07-31T06:09:27;18.20;92.60
9901;DHT22;4989;48.772;9.154;2023-07-31T06:14:30;18.60;92.60
9901;DHT22;4989;48.772;9.154;2023-07-31T07:56:03;18.80;91.50
9901;DHT22;4989;48.772;9.154;2023-07-31T08:01:05;20.50;76.50
9901;DHT22;4989;48.772;9.154;2023-07-31T08:06:08;21.10;78.10
9901;DHT22;4989;48.772;9.154;2023-07-31T08:11:11;21.70;73.90
9901;DHT22;4989;48.772;9.154;2023-07-31T08:16:13;21.70;73.00
9901;DHT22;4989;48.772;9.154;2023-07-31T08:21:15;21.80;72.20
9901;DHT22;4989;48.772;9.154;2023-07-31T08:26:18;21.80;71.30
9901;DHT22;4989;48.772;9.154;2023-07-31T08:31:21;22.20;72.50
9901;DHT22;4989;48.772;9.154;2023-07-31T08:36:23;22.60;70.60
9901;DHT22;4989;48.772;9.154;2023-07-31T08:41:29;22.10;71.50
9901;DHT22;4989;48.772;9.154;2023-07-31T08:46:32;21.90;70.30
9901;DHT22;4989;48.772;9.154;2023-07-31T08:51:36;22.10;69.50
9901;DHT22;4989;48.772;9.154;2023-07-31T08:56:41;22.20;69.00
9901;DHT22;4989;48.772;9.154;2023-07-31T09:01:50;22.50;69.40
9901;DHT22;4989;48.772;9.154;2023-07-31T09:07:00;22.80;66.80
9901;DHT22;4989;48.772;9.154;2023-07-31T09:12:07;22.70;68.80
9901;DHT22;4989;48.772;9.154;2023-07-31T09:17:09;23.20;68.20
9901;DHT22;4989;48.772;9.154;2023-07-31T09:22:13;23.90;67.30
9901;DHT22;4989;48.772;9.154;2023-07-31T09:27:15;23.00;67.40
9901;DHT22;4989;48.772;9.154;2023-07-31T09:32:17;22.10;68.60
9901;DHT22;4989;48.772;9.154;2023-07-31T09:37:20;22.10;68.90
9901;DHT22;4989;48.772;9.154;2023-07-31T09:42:26;21.90;69.70
9901;DHT22;4989;48.772;9.154;2023-07-31T09:47:33;22.10;70.80
9901;DHT22;4989;48.772;9.154;2023-07-31T09:52:38;22.30;69.90
9901;DHT22;4989;48.772;9.154;2023-07-31T09:57:42;22.80;70.50
9901;DHT22;4989;48.772;9.154;2023-07-31T10:02:47;23.30;66.30
9901;DHT22;4989;48.772;9.154;2023-07-31T10:07:54;22.40;67.60
9901;DHT22;4989;48.772;9.154;2023-07-31T10:12:57;22.70;67.60
9901;DHT22;4989;48.772;9.154;2023-07-31T10:18:01;22.90;66.00
9901;DHT22;4989;48.772;9.154;2023-07-31T10:23:04;22.20;68.10
9901;DHT22;4989;48.772;9.154;2023-07-31T10:28:08;21.90;68.40
9901;DHT22;4989;48.772;9.154;2023-07-31T10:33:13;22.30;68.20
9901;DHT22;4989;48.772;9.154;2023-07-31T10:38:16;22.60;68.10
9901;DHT22;4989;48.772;9.154;2023-07-31T10:43:27;22.70;66.70
9901;DHT22;4989;48.772;9.154;2023-07-31T10:48:33;23.00;66.80
9901;DHT22;4989;48.772;9.154;2023-07-31T10:53:39;23.30;65.10
9901;DHT22;4989;48.772;9.154;2023-07-31T10:58:44;23.30;66.40
9901;DHT22;4989;48.772;9.154;2023-07-31T11:03:49;23.50;66.70
9901;DHT22;4989;48.772;9.154;2023-07-31T11:08:54;23.70;63.70
9901;DHT22;4989;48.772;9.154;2023-07-31T11:13:56;23.40;64.60
9901;DHT22;4989;48.772;9.154;2023-07-31T11:19:01;23.40;64.00
9901;DHT22;4989;48.772;9.154;2023-07-31T11:24:04;22.90;65.10
9901;DHT22;4989;48.772;9.154;2023-07-31T11:29:11;24.10;63.50
9901;DHT22;4989;48.772;9.154;2023-07-31T11:34:15;25.00;61.30
9901;DHT22;4989;48.772;9.154;2023-07-31T11:39:17;24.30;62.40
9901;DHT22;4989;48.772;9.154;2023-07-31T11:44:22;24.10;63.30
9901;DHT22;4989;48.772;9.154;2023-07-31T11:49:29;24.50;62.30
9901;DHT22;4989;48.772;9.154;2023-07-31T11:54:38;23.50;63.30
9901;DHT22;4989;48.772;9.154;2023-07-31T11:59:46;23.50;65.30
9901;DHT22;4989;48.772;9.154;2023-07-31T12:04:49;23.30;66.50
9901;DHT22;4989;48.772;9.154;2023-07-31T12:09:55;23.40;66.10
9901;DHT22;4989;48.772;9.154;2023-07-31T12:15:00;23.60;66.20
9901;DHT22;4989;48.772;9.154;2023-07-31T12:20:04;23.80;65.10
9901;DHT22;4989;48.772;9.154;2023-07-31T12:25:07;23.40;65.40
9901;DHT22;4989;48.772;9.154;2023-07-31T12:30:31;23.40;68.00
9901;DHT22;4989;48.772;9.154;2023-07-31T12:35:45;23.70;66.30
9901;DHT22;4989;48.772;9.154;2023-07-31T12:40:50;23.50;64.90
9901;DHT22;4989;48.772;9.154;2023-07-31T12:45:54;23.60;65.40
9901;DHT22;4989;48.772;9.154;2023-07-31T12:50:58;23.50;66.30
9901;DHT22;4989;48.772;9.154;2023-07-31T12:56:01;23.40;68.50
9901;DHT22;4989;48.772;9.154;2023-07-31T13:01:05;23.50;66.40
9901;DHT22;4989;48.772;9.154;2023-07-31T13:06:08;23.50;64.90
9901;DHT22;4989;48.772;9.154;2023-07-31T13:11:10;23.60;65.70
9901;DHT22;4989;48.772;9.154;2023-07-31T13:16:13;23.90;67.50
9901;DHT22;4989;48.772;9.154;2023-07-31T13:21:15;23.60;65.10
9901;DHT22;4989;48.772;9.154;2023-07-31T13:26:20;23.50;66.60
9901;DHT22;4989;48.772;9.154;2023-07-31T13:31:22;24.10;64.00
9901;DHT22;4989;48.772;9.154;2023-07-31T13:36:25;24.60;66.80
9901;DHT22;4989;48.772;9.154;2023-07-31T13:41:27;24.90;63.50
9901;DHT22;4989;48.772;9.154;2023-07-31T13:46:29;24.90;63.60
9901;DHT22;4989;48.772;9.154;2023-07-31T13:51:32;24.80;62.90
9901;DHT22;4989;48.772;9.154;2023-07-31T13:56:34;24.60;63.90
9901;DHT22;4989;48.772;9.154;2023-07-31T14:01:37;24.20;63.30
9901;DHT22;4989;48.772;9.154;2023-07-31T14:06:39;24.10;65.30
9901;DHT22;4989;48.772;9.154;2023-07-31T14:11:42;24.30;65.10
9901;DHT22;4989;48.772;9.154;2023-07-31T14:16:44;24.40;67.20
9901;DHT22;4989;48.772;9.154;2023-07-31T14:21:46;24.30;65.00
9901;DHT22;4989;48.772;9.154;2023-07-31T14:27:01;24.20;66.70
9901;DHT22;4989;48.772;9.154;2023-07-31T14:32:04;24.40;64.40
9901;DHT22;4989;48.772;9.154;2023-07-31T14:37:07;24.10;65.20
9901;DHT22;4989;48.772;9.154;2023-07-31T14:42:09;24.10;65.20
9901;DHT22;4989;48.772;9.154;2023-07-31T14:47:11;24.40;64.50
9901;DHT22;4989;48.772;9.154;2023-07-31T14:52:14;24.70;64.80
9901;DHT22;4989;48.772;9.154;2023-07-31T14:57:16;24.70;65.00
9901;DHT22;4989;48.772;9.154;2023-07-31T15:02:19;24.90;65.40
9901;DHT22;4989;48.772;9.154;2023-07-31T15:07:21;25.00;64.20
9901;DHT22;4989;48.772;9.154;2023-07-31T15:12:23;24.90;62.50
9901;DHT22;4989;48.772;9.154;2023-07-31T15:17:27;24.90;62.10
9901;DHT22;4989;48.772;9.154;2023-07-31T15:22:30;24.80;62.80
9901;DHT22;4989;48.772;9.154;2023-07-31T15:27:33;24.90;62.40
9901;DHT22;4989;48.772;9.154;2023-07-31T15:32:37;25.20;62.00
9901;DHT22;4989;48.772;9.154;2023-07-31T15:37:40;24.90;64.00
9901;DHT22;4989;48.772;9.154;2023-07-31T15:42:42;24.70;62.50
9901;DHT22;4989;48.772;9.154;2023-07-31T15:47:44;24.80;62.50
9901;DHT22;4989;48.772;9.154;2023-07-31T15:52:46;24.60;62.00
9901;DHT22;4989;48.772;9.154;2023-07-31T15:57:48;24.70;63.00
9901;DHT22;4989;48.772;9.154;2023-07-31T16:02:51;25.00;62.60
9901;DHT22;4989;48.772;9.154;2023-07-31T16:07:53;24.80;63.50
9901;DHT22;4989;48.772;9.154;2023-07-31T16:12:55;24.90;64.90
9901;DHT22;4989;48.772;9.154;2023-07-31T16:18:00;24.50;63.40
9901;DHT22;4989;48.772;9.154;2023-07-31T16:23:04;24.50;63.10
9901;DHT22;4989;48.772;9.154;2023-07-31T16:28:06;24.40;63.10
9901;DHT22;4989;48.772;9.154;2023-07-31T16:33:09;24.10;63.80
9901;DHT22;4989;48.772;9.154;2023-07-31T16:38:13;24.30;64.40
9901;DHT22;4989;48.772;9.154;2023-07-31T16:43:16;24.40;65.70
9901;DHT22;4989;48.772;9.154;2023-07-31T16:48:18;24.30;63.80
9901;DHT22;4989;48.772;9.154;2023-07-31T16:53:20;24.10;65.40
9901;DHT22;4989;48.772;9.154;2023-07-31T16:58:23;24.20;67.00
9901;DHT22;4989;48.772;9.154;2023-07-31T17:03:25;24.20;66.10
9901;DHT22;4989;48.772;9.154;2023-07-31T17:08:27;24.10;67.30
9901;DHT22;4989;48.772;9.154;2023-07-31T17:13:30;24.10;65.60
9901;DHT22;4989;48.772;9.154;2023-07-31T17:18:32;24.40;68.80
9901;DHT22;4989;48.772;9.154;2023-07-31T17:23:36;24.50;64.60
9901;DHT22;4989;48.772;9.154;2023-07-31T17:28:39;24.10;64.60
9901;DHT22;4989;48.772;9.154;2023-07-31T17:33:42;24.10;65.40
9901;DHT22;4989;48.772;9.154;2023-07-31T17:38:45;24.40;66.40
9901;DHT22;4989;48.772;9.154;2023-07-31T17:43:48;24.00;65.30
9901;DHT22;4989;48.772;9.154;2023-07-31T17:48:50;24.00;65.80
9901;DHT22;4989;48.772;9.154;2023-07-31T17:53:57;24.10;66.40
9901;DHT22;4989;48.772;9.154;2023-07-31T17:59:06;24.30;66.40
9901;DHT22;4989;48.772;9.154;2023-07-31T18:04:08;24.20;66.10
9901;DHT22;4989;48.772;9.154;2023-07-31T18:09:12;24.20;67.00
9901;DHT22;4989;48.772;9.154;2023-07-31T18:14:18;24.30;66.40
9901;DHT22;4989;48.772;9.154;2023-07-31T18:19:23;24.50;69.90
9901;DHT22;4989;48.772;9.154;2023-07-31T18:24:25;24.50;67.40
9901;DHT22;4989;48.772;9.154;2023-07-31T18:29:28;23.80;68.30
9901;DHT22;4989;48.772;9.154;2023-07-31T18:34:39;23.60;69.30
9901;DHT22;4989;48.772;9.154;2023-07-31T18:40:01;23.60;70.20
9901;DHT22;4989;48.772;9.154;2023-07-31T18:45:05;23.70;72.10
9901;DHT22;4989;48.772;9.154;2023-07-31T18:50:08;23.80;72.30
9901;DHT22;4989;48.772;9.154;2023-07-31T18:55:11;23.60;74.10
9901;DHT22;4989;48.772;9.154;2023-07-31T19:00:13;23.40;79.70
9901;DHT22;4989;48.772;9.154;2023-07-31T19:05:15;23.00;83.90
9901;DHT22;4989;48.772;9.154;2023-07-31T19:10:18;22.50;84.70
9901;DHT22;4989;48.772;9.154;2023-07-31T19:15:21;22.00;87.90
9901;DHT22;4989;48.772;9.154;2023-07-31T19:20:25;21.50;91.60
9901;DHT22;4989;48.772;9.154;2023-07-31T19:25:28;20.90;95.80
9901;DHT22;4989;48.772;9.154;2023-07-31T19:30:30;20.80;99.60
9901;DHT22;4989;48.772;9.154;2023-07-31T19:35:33;20.60;99.90
9901;DHT22;4989;48.772;9.154;2023-07-31T19:40:35;20.30;99.90
9901;DHT22;4989;48.772;9.154;2023-07-31T19:45:37;20.40;99.90
9901;DHT22;4989;48.772;9.154;2023-07-31T19:50:42;20.80;99.90
9901;DHT22;4989;48.772;9.154;2023-07-31T19:55:44;20.70;99.90
9901;DHT22;4989;48.772;9.154;2023-07-31T20:00:46;20.80;99.90
9901;DHT22;4989;48.772;9.154;2023-07-31T20:05:50;21.10;99.90
9901;DHT22;4989;48.772;9.154;2023-07-31T20:10:55;20.80;99.90
9901;DHT22;4989;48.772;9.154;2023-07-31T20:16:03;20.30;99.90
9901;DHT22;4989;48.772;9.154;2023-07-31T20:21:05;20.60;99.90
9901;DHT22;4989;48.772;9.154;2023-07-31T20:26:09;20.50;99.90
9901;DHT22;4989;48.772;9.154;2023-07-31T20:31:19;20.50;99.90
9901;DHT22;4989;48.772;9.154;2023-07-31T20:36:29;21.00;99.90
9901;DHT22;4989;48.772;9.154;2023-07-31T20:41:35;21.20;99.90
9901;DHT22;4989;48.772;9.154;2023-07-31T20:46:37;21.10;99.90
9901;DHT22;4989;48.772;9.154;2023-07-31T20:51:40;21.00;99.90
9901;DHT22;4989;48.772;9.154;2023-07-31T20:56:48;21.10;99.90
9901;DHT22;4989;48.772;9.154;2023-07-31T21:01:51;21.00;99.90
9901;DHT22;4989;48.772;9.154;2023-07-31T21:06:54;21.10;99.90
9901;DHT22;4989;48.772;9.154;2023-07-31T21:11:56;20.80;99.90
9901;DHT22;4989;48.772;9.154;2023-07-31T21:16:58;20.90;99.90
9901;DHT22;4989;48.772;9.154;2023-07-31T21:22:00;20.90;99.90
9901;DHT22;4989;48.772;9.154;2023-07-31T21:27:05;20.40;99.90
9901;DHT22;4989;48.772;9.154;2023-07-31T21:32:08;20.00;99.90
9901;DHT22;4989;48.772;9.154;2023-07-31T21:37:14;19.80;99.90
9901;DHT22;4989;48.772;9.154;2023-07-31T21:42:20;19.70;99.90
9901;DHT22;4989;48.772;9.154;2023-07-31T21:47:23;19.60;99.90
9901;DHT22;4989;48.772;9.154;2023-07-31T21:52:28;19.60;99.90
9901;DHT22;4989;48.772;9.154;2023-07-31T21:57:31;19.50;99.90
9901;DHT22;4989;48.772;9.154;2023-07-31T22:02:33;19.50;99.90
9901;DHT22;4989;48.772;9.154;2023-07-31T22:07:35;19.60;99.90
9901;DHT22;4989;48.772;9.154;2023-07-31T22:12:39;19.40;99.90
9901;DHT22;4989;48.772;9.154;2023-07-31T22:17:41;19.30;99.90
9901;DHT22;4989;48.772;9.154;2023-07-31T22:22:46;19.30;99.90
9901;DHT22;4989;48.772;9.154;2023-07-31T22:27:48;19.20;99.90
9901;DHT22;4989;48.772;9.154;2023-07-31T22:32:52;19.20;99.90
9901;DHT22;4989;48.772;9.154;2023-07-31T22:37:54;19.20;99.90
9901;DHT22;4989;48.772;9.154;2023-07-31T22:43:02;19.10;99.90
9901;DHT22;4989;48.772;9.154;2023-07-31T22:48:06;19.30;99.90
9901;DHT22;4989;48.772;9.154;2023-07-31T22:53:10;19.40;99.90
9901;DHT22;4989;48.772;9.154;2023-07-31T22:58:12;19.40;99.90
9901;DHT22;4989;48.772;9.154;2023-07-31T23:03:15;19.60;99.90
9901;DHT22;4989;48.772;9.154;2023-07-31T23:08:19;19.90;99.90
9901;DHT22;4989;48.772;9.154;2023-07-31T23:13:23;20.00;99.90
9901;DHT22;4989;48.772;9.154;2023-07-31T23:18:25;19.80;99.90
9901;DHT22;4989;48.772;9.154;2023-07-31T23:23:27;19.90;99.90
9901;DHT22;4989;48.772;9.154;2023-07-31T23:28:29;20.00;99.90
9901;DHT22;4989;48.772;9.154;2023-07-31T23:33:32;19.90;99.90
9901;DHT22;4989;48.772;9.154;2023-07-31T23:38:38;20.40;99.90
9901;DHT22;4989;48.772;9.154;2023-07-31T23:43:41;20.80;99.90
9901;DHT22;4989;48.772;9.154;2023-07-31T23:48:46;20.60;99.90
9901;DHT22;4989;48.772;9.154;2023-07-31T23:53:50;20.70;99.90
9901;DHT22;4989;48.772;9.154;2023-07-31T23:58:53;19.90;99.90
